Portada
METAR-TAF:

METAR-TAF

Aeropuertos :

Ambae, Vanuatu

latitud: 15-18-24S, longitud: 167-58-02E, altitud: 51 m

METAR: falta

Hora: 02:35 (15:35 UTC)

Pronóstico

El informe se hizo hace 22 horas y 35 minutos, a las 17:00 UTC
Pronóstico válido del 18 a las 18 UTC al 19 a las 18 UTC
Viento 12 kt del este-sureste
Visibilidad: 8000 m
Nubes dispersas a una altura de 2000 ft
Cielo nuboso a una altura de 4000 ft
Nubes dispersas a una altura de 1200 ft
Cielo nuboso a una altura de 1800 ft
chaparrones de lluvia,

TAF: NVSG 181700Z 1818/1918 11012KT 9999 SCT020 BKN040 INTER 1818/1824 8000 +SHRA SCT012 BKN018

Observaciones y pronósticos meteorológicos de más de 4000 aeropuertos (mensajes METAR y TAF).

Los puntos amarillos y rojos representan las estaciones disponibles.

Ponga el ratón en el punto deseado para ver el nombre de la estación.

Haga clic para ver las observaciones y los pronósticos meteorológicos.

Para cambiar el mapa : haga clic en los botones verdes con una cruz de color negro para hacer un zoom, en el botón verde con un guión para alejar o en las flechas verdes para mapas adyacentes.


METAR-TAF: